createdAt,value
2022-07-30T00:00:31.250Z,15.86
2022-07-30T00:05:39.472Z,15.77
2022-07-30T00:10:47.584Z,15.68
2022-07-30T00:15:58.420Z,15.58
2022-07-30T00:21:06.529Z,15.49
2022-07-30T00:26:15.110Z,15.47
2022-07-30T00:31:23.442Z,15.58
2022-07-30T00:36:31.563Z,15.45
2022-07-30T00:41:57.221Z,15.33
2022-07-30T00:47:05.226Z,15.23
2022-07-30T00:52:13.362Z,15.19
2022-07-30T00:57:22.804Z,15.19
2022-07-30T01:02:31.099Z,15.04
2022-07-30T01:07:39.704Z,14.92
2022-07-30T01:12:49.443Z,14.82
2022-07-30T01:18:01.845Z,14.72
2022-07-30T01:23:15.387Z,14.61
2022-07-30T01:28:28.020Z,14.51
2022-07-30T01:33:40.917Z,14.42
2022-07-30T01:38:51.554Z,14.32
2022-07-30T01:44:00.958Z,14.23
2022-07-30T01:49:10.605Z,14.14
2022-07-30T01:54:23.895Z,14.06
2022-07-30T01:59:35.408Z,13.97
2022-07-30T02:04:44.950Z,13.89
2022-07-30T02:09:57.299Z,13.80
2022-07-30T02:15:17.773Z,13.71
2022-07-30T02:20:29.716Z,13.62
2022-07-30T02:25:45.193Z,13.52
2022-07-30T02:30:56.214Z,13.43
2022-07-30T02:36:07.806Z,13.33
2022-07-30T02:41:21.493Z,13.24
2022-07-30T02:46:30.528Z,13.15
2022-07-30T02:52:02.160Z,13.05
2022-07-30T02:57:11.501Z,12.97
2022-07-30T03:02:28.938Z,12.88
2022-07-30T03:07:40.866Z,12.80
2022-07-30T03:12:51.984Z,12.72
2022-07-30T03:18:01.758Z,12.65
2022-07-30T03:23:13.219Z,12.59
2022-07-30T03:28:23.151Z,12.54
2022-07-30T03:33:38.388Z,12.50
2022-07-30T03:38:49.116Z,12.46
2022-07-30T03:43:58.080Z,12.43
2022-07-30T03:49:07.605Z,12.43
2022-07-30T03:54:16.728Z,12.47
2022-07-30T03:59:59.680Z,12.57
2022-07-30T04:05:08.877Z,12.71
2022-07-30T04:10:17.696Z,12.89
2022-07-30T04:16:37.388Z,13.12
2022-07-30T04:21:29.639Z,13.37
2022-07-30T04:26:39.634Z,13.59
2022-07-30T04:31:48.037Z,13.80
2022-07-30T04:37:16.861Z,14.01
2022-07-30T04:42:25.633Z,14.25
2022-07-30T04:47:42.128Z,14.52
2022-07-30T04:53:07.762Z,14.85
2022-07-30T04:58:20.649Z,15.21
2022-07-30T05:03:29.378Z,15.58
2022-07-30T05:08:38.189Z,15.95
2022-07-30T05:13:50.349Z,16.31
2022-07-30T05:19:01.828Z,16.66
2022-07-30T05:24:17.585Z,17.02
2022-07-30T05:29:34.725Z,17.38
2022-07-30T05:34:51.781Z,17.73
2022-07-30T05:40:02.596Z,18.05
2022-07-30T05:45:40.916Z,18.41
2022-07-30T05:50:48.987Z,18.71
2022-07-30T05:55:57.535Z,19.03
2022-07-30T06:01:39.529Z,19.32
2022-07-30T06:06:53.538Z,19.59
2022-07-30T06:12:01.828Z,19.84
2022-07-30T06:17:10.343Z,20.06
2022-07-30T06:22:38.878Z,20.26
2022-07-30T06:27:50.558Z,20.42
2022-07-30T06:32:58.842Z,20.56
2022-07-30T06:38:08.049Z,20.67
2022-07-30T06:43:26.476Z,20.77
2022-07-30T06:48:53.712Z,20.88
2022-07-30T06:54:02.399Z,21.00
2022-07-30T06:59:18.452Z,21.13
2022-07-30T07:04:52.510Z,21.25
2022-07-30T07:10:00.550Z,21.37
2022-07-30T07:15:38.664Z,21.48
2022-07-30T07:20:50.097Z,21.57
2022-07-30T07:25:59.545Z,21.67
2022-07-30T07:31:08.623Z,21.77
2022-07-30T07:36:17.741Z,21.88
2022-07-30T07:41:26.611Z,22.01
2022-07-30T07:46:35.791Z,22.18
2022-07-30T07:51:48.386Z,22.39
2022-07-30T07:57:01.468Z,22.63
2022-07-30T08:02:18.660Z,22.87
2022-07-30T08:07:33.375Z,23.05
2022-07-30T08:12:58.040Z,23.20
2022-07-30T08:18:25.374Z,23.30
2022-07-30T08:23:53.233Z,23.38
2022-07-30T08:29:02.035Z,23.45
2022-07-30T08:34:10.373Z,23.50
2022-07-30T08:39:19.710Z,23.54
2022-07-30T08:44:28.168Z,23.59
2022-07-30T08:49:38.367Z,23.61
2022-07-30T08:54:48.163Z,23.65
2022-07-30T09:00:01.335Z,23.67
2022-07-30T09:05:12.178Z,23.70
2022-07-30T09:10:20.256Z,23.72
2022-07-30T09:15:28.837Z,23.76
2022-07-30T09:20:38.510Z,23.79
2022-07-30T09:25:52.331Z,23.82
2022-07-30T09:31:20.066Z,23.83
2022-07-30T09:36:46.359Z,23.84
2022-07-30T09:42:04.949Z,23.87
2022-07-30T09:47:31.811Z,23.91
2022-07-30T09:52:44.268Z,23.95
2022-07-30T09:58:01.614Z,24.01
2022-07-30T10:03:33.945Z,24.07
2022-07-30T10:09:14.246Z,24.14
2022-07-30T10:14:35.387Z,24.21
2022-07-30T10:19:54.969Z,24.27
2022-07-30T10:25:27.809Z,24.33
2022-07-30T10:31:47.019Z,24.37
2022-07-30T10:36:35.767Z,24.44
2022-07-30T10:41:59.622Z,24.50
2022-07-30T10:47:10.613Z,24.57
2022-07-30T10:52:39.840Z,24.62
2022-07-30T10:58:02.330Z,24.68
2022-07-30T11:03:38.778Z,24.72
2022-07-30T11:08:57.299Z,24.78
2022-07-30T11:14:05.963Z,24.84
2022-07-30T11:19:51.933Z,24.89
2022-07-30T11:24:49.987Z,24.96
2022-07-30T11:29:58.209Z,25.00
2022-07-30T11:35:23.798Z,25.05
2022-07-30T11:40:33.595Z,25.08
2022-07-30T11:45:43.460Z,25.11
2022-07-30T11:50:52.491Z,25.15
2022-07-30T11:56:02.702Z,25.21
2022-07-30T12:01:17.167Z,25.26
2022-07-30T12:06:26.204Z,25.30
2022-07-30T12:11:38.278Z,25.34
2022-07-30T12:16:53.270Z,25.37
2022-07-30T12:22:04.986Z,25.41
2022-07-30T12:27:14.003Z,25.44
2022-07-30T12:32:23.373Z,25.46
2022-07-30T12:37:32.031Z,25.48
2022-07-30T12:42:51.593Z,25.52
2022-07-30T12:48:00.149Z,25.54
2022-07-30T12:53:10.249Z,25.56
2022-07-30T12:58:18.373Z,25.57
2022-07-30T13:03:29.847Z,25.59
2022-07-30T13:08:55.880Z,25.60
2022-07-30T13:14:04.903Z,25.60
2022-07-30T13:19:13.783Z,25.61
2022-07-30T13:24:22.874Z,25.60
2022-07-30T13:29:31.305Z,25.60
2022-07-30T13:34:40.372Z,25.60
2022-07-30T13:39:48.978Z,25.62
2022-07-30T13:44:57.566Z,25.64
2022-07-30T13:50:06.775Z,25.66
2022-07-30T13:55:15.340Z,25.70
2022-07-30T14:00:25.004Z,25.73
2022-07-30T14:05:33.974Z,25.76
2022-07-30T14:10:42.213Z,25.78
2022-07-30T14:15:50.985Z,25.78
2022-07-30T14:20:59.602Z,25.77
2022-07-30T14:26:07.518Z,25.76
2022-07-30T14:31:15.240Z,25.73
2022-07-30T14:36:22.942Z,25.70
2022-07-30T14:41:30.774Z,25.67
2022-07-30T14:46:38.462Z,25.64
2022-07-30T14:52:01.330Z,25.60
2022-07-30T14:57:10.699Z,25.55
2022-07-30T15:02:18.425Z,25.51
2022-07-30T15:07:26.186Z,25.46
2022-07-30T15:12:34.650Z,25.42
2022-07-30T15:17:46.197Z,25.37
2022-07-30T15:22:53.787Z,25.32
2022-07-30T15:28:01.291Z,25.27
2022-07-30T15:33:08.944Z,25.23
2022-07-30T15:38:16.620Z,25.19
2022-07-30T15:43:24.748Z,25.15
2022-07-30T15:48:32.503Z,25.12
2022-07-30T15:53:40.876Z,25.09
2022-07-30T15:58:48.441Z,25.05
2022-07-30T16:03:56.903Z,25.00
2022-07-30T16:09:05.860Z,24.96
2022-07-30T16:14:13.527Z,24.91
2022-07-30T16:19:20.954Z,24.86
2022-07-30T16:24:28.454Z,24.81
2022-07-30T16:29:35.899Z,24.75
2022-07-30T16:34:43.454Z,24.70
2022-07-30T16:39:52.530Z,24.64
2022-07-30T16:45:00.321Z,24.59
2022-07-30T16:50:09.372Z,24.54
2022-07-30T16:55:17.609Z,24.48
2022-07-30T17:00:25.088Z,24.43
2022-07-30T17:05:32.835Z,24.38
2022-07-30T17:10:40.954Z,24.33
2022-07-30T17:15:49.125Z,24.29
2022-07-30T17:20:56.944Z,24.24
2022-07-30T17:26:04.673Z,24.19
2022-07-30T17:31:13.195Z,24.15
2022-07-30T17:36:20.697Z,24.10
2022-07-30T17:41:28.538Z,24.05
2022-07-30T17:46:36.089Z,23.99
2022-07-30T17:51:43.928Z,23.94
2022-07-30T17:56:51.739Z,23.88
2022-07-30T18:02:00.503Z,23.81
2022-07-30T18:07:08.143Z,23.75
2022-07-30T18:12:16.200Z,23.68
2022-07-30T18:17:25.023Z,23.61
2022-07-30T18:22:32.869Z,23.53
2022-07-30T18:27:40.359Z,23.47
2022-07-30T18:32:48.646Z,23.39
2022-07-30T18:37:55.978Z,23.32
2022-07-30T18:43:04.330Z,23.25
2022-07-30T18:48:11.959Z,23.18
2022-07-30T18:53:20.232Z,23.11
2022-07-30T18:58:28.006Z,23.03
2022-07-30T19:03:36.302Z,22.97
2022-07-30T19:08:43.985Z,22.90
2022-07-30T19:13:52.376Z,22.83
2022-07-30T19:19:00.093Z,22.76
2022-07-30T19:24:09.957Z,22.70
2022-07-30T19:29:18.289Z,22.63
2022-07-30T19:34:26.403Z,22.57
2022-07-30T19:39:35.222Z,22.51
2022-07-30T19:44:42.991Z,22.45
2022-07-30T19:49:51.182Z,22.39
2022-07-30T19:55:01.349Z,22.33
2022-07-30T20:00:14.126Z,22.27
2022-07-30T20:05:54.832Z,22.20
2022-07-30T20:11:01.949Z,22.13
2022-07-30T20:16:12.749Z,22.06
2022-07-30T20:21:20.873Z,22.00
2022-07-30T20:26:48.513Z,21.93
2022-07-30T20:31:59.873Z,21.88
2022-07-30T20:37:16.641Z,21.83
2022-07-30T20:42:31.249Z,21.77
2022-07-30T20:47:38.999Z,21.73
2022-07-30T20:52:48.953Z,21.68
2022-07-30T21:03:25.249Z,21.61
2022-07-30T21:08:37.842Z,21.57
2022-07-30T21:13:45.906Z,21.55
2022-07-30T21:18:55.266Z,21.51
2022-07-30T21:24:04.667Z,21.49
2022-07-30T21:29:12.423Z,21.46
2022-07-30T21:34:19.893Z,21.43
2022-07-30T21:39:40.049Z,21.40
2022-07-30T21:44:48.801Z,21.37
2022-07-30T21:49:57.333Z,21.35
2022-07-30T21:55:07.230Z,21.32
2022-07-30T22:00:22.568Z,21.29
2022-07-30T22:05:38.358Z,21.26
2022-07-30T22:10:49.058Z,21.23
2022-07-30T22:15:59.545Z,21.20
2022-07-30T22:21:07.647Z,21.17
2022-07-30T22:26:15.214Z,21.13
2022-07-30T22:31:23.817Z,21.09
2022-07-30T22:36:38.533Z,21.06
2022-07-30T22:41:46.393Z,21.03
2022-07-30T22:46:56.239Z,20.99
2022-07-30T22:52:23.861Z,20.96
2022-07-30T22:57:37.703Z,20.93
2022-07-30T23:02:47.476Z,20.90
2022-07-30T23:07:55.800Z,20.87
2022-07-30T23:12:31.725Z,21.64
2022-07-30T23:13:03.179Z,20.84
2022-07-30T23:18:11.483Z,20.82
2022-07-30T23:23:18.794Z,20.79
2022-07-30T23:28:27.293Z,20.76
2022-07-30T23:33:34.841Z,20.75
2022-07-30T23:38:42.512Z,20.72
2022-07-30T23:43:51.856Z,20.70
2022-07-30T23:48:59.760Z,20.67
2022-07-30T23:54:07.711Z,20.64
2022-07-30T23:59:15.693Z,20.60
